G1 CYXU-CYXU
Flight info
| Callsign | G1 |
|---|---|
| Flight time | N/A |
| Altitude | 1900 |
| Route | CYXU/27 CIRCUITS |
| Aircraft | P51 |
Departure
| Time | 2026-04-19 04:00 |
|---|---|
| Airport | London International Airport (CYXU) |
Arrival
| Time | N/A |
|---|---|
| Airport | London International Airport (CYXU) |
| Time | Latitude | Longitude | Altitude | Speed | Heading |
|---|---|---|---|---|---|
| 2026-04-19 03:33 | 43.03556 | -81.16487 | 908 ft | 0 kts | 336° |
| 2026-04-19 03:54 | 43.03564 | -81.16491 | 909 ft | 10 kts | 340° |
| 2026-04-19 03:55 | 43.03602 | -81.16459 | 909 ft | 9 kts | 73° |
| 2026-04-19 03:55 | 43.03617 | -81.16336 | 909 ft | 17 kts | 77° |
| 2026-04-19 03:55 | 43.03641 | -81.16178 | 906 ft | 19 kts | 79° |
| 2026-04-19 03:55 | 43.03666 | -81.16003 | 904 ft | 18 kts | 77° |
| 2026-04-19 03:56 | 43.03689 | -81.15837 | 902 ft | 17 kts | 84° |
| 2026-04-19 03:56 | 43.03691 | -81.15687 | 901 ft | 14 kts | 120° |
| 2026-04-19 03:56 | 43.03634 | -81.15607 | 901 ft | 12 kts | 138° |
| 2026-04-19 03:56 | 43.03540 | -81.15494 | 901 ft | 19 kts | 138° |
| 2026-04-19 03:57 | 43.03454 | -81.15390 | 904 ft | 15 kts | 137° |
| 2026-04-19 03:57 | 43.03380 | -81.15302 | 903 ft | 13 kts | 138° |
| 2026-04-19 03:57 | 43.03313 | -81.15220 | 903 ft | 14 kts | 134° |
| 2026-04-19 03:57 | 43.03333 | -81.15091 | 905 ft | 18 kts | 42° |
| 2026-04-19 03:58 | 43.03447 | -81.14945 | 907 ft | 23 kts | 45° |
| 2026-04-19 03:58 | 43.03551 | -81.14803 | 909 ft | 19 kts | 45° |
| 2026-04-19 03:58 | 43.03645 | -81.14677 | 907 ft | 18 kts | 43° |
| 2026-04-19 03:58 | 43.03734 | -81.14562 | 906 ft | 17 kts | 43° |
| 2026-04-19 03:59 | 43.03817 | -81.14451 | 903 ft | 17 kts | 44° |
| 2026-04-19 03:59 | 43.03892 | -81.14417 | 902 ft | 9 kts | 343° |
| 2026-04-19 03:59 | 43.03959 | -81.14451 | 901 ft | 10 kts | 339° |
| 2026-04-19 03:59 | 43.04006 | -81.14472 | 901 ft | 11 kts | 339° |
| 2026-04-19 04:00 | 43.04062 | -81.14543 | 902 ft | 7 kts | 281° |
| 2026-04-19 04:00 | 43.03969 | -81.15229 | 926 ft | 192 kts | 259° |
| 2026-04-19 04:00 | 43.03435 | -81.17105 | 1434 ft | 212 kts | 207° |
| 2026-04-19 04:00 | 43.02303 | -81.16549 | 1606 ft | 182 kts | 131° |
| 2026-04-19 04:01 | 43.02085 | -81.14988 | 1709 ft | 171 kts | 72° |
| 2026-04-19 04:01 | 43.02700 | -81.11913 | 2237 ft | 163 kts | 78° |
| 2026-04-19 04:01 | 43.02891 | -81.10396 | 2435 ft | 168 kts | 82° |
| 2026-04-19 04:02 | 43.03038 | -81.08654 | 2559 ft | 195 kts | 85° |
| 2026-04-19 04:02 | 43.03142 | -81.06636 | 2701 ft | 232 kts | 86° |
| 2026-04-19 04:02 | 43.03258 | -81.04332 | 2634 ft | 235 kts | 86° |
| 2026-04-19 04:02 | 43.03416 | -81.02272 | 2625 ft | 202 kts | 71° |
| 2026-04-19 04:03 | 43.04446 | -81.01231 | 1868 ft | 218 kts | 343° |
| 2026-04-19 04:03 | 43.05253 | -81.02779 | 2126 ft | 196 kts | 290° |
| 2026-04-19 04:03 | 43.05459 | -81.04331 | 2337 ft | 145 kts | 269° |
| 2026-04-19 04:03 | 43.05404 | -81.05849 | 2472 ft | 176 kts | 270° |
| 2026-04-19 04:04 | 43.06056 | -81.07411 | 2300 ft | 222 kts | 328° |
| 2026-04-19 04:04 | 43.07636 | -81.07465 | 2039 ft | 254 kts | 35° |
| 2026-04-19 04:04 | 43.08114 | -81.05309 | 2202 ft | 257 kts | 110° |
| 2026-04-19 04:04 | 43.06822 | -81.04043 | 2896 ft | 230 kts | 191° |
| 2026-04-19 04:05 | 43.05693 | -81.05548 | 3202 ft | 284 kts | 239° |
| 2026-04-19 04:05 | 43.05022 | -81.07934 | 2968 ft | 248 kts | 256° |
| 2026-04-19 04:05 | 43.04690 | -81.10141 | 2205 ft | 229 kts | 257° |
| 2026-04-19 04:05 | 43.04381 | -81.12136 | 1349 ft | 189 kts | 259° |
| 2026-04-19 04:06 | 43.04175 | -81.13648 | 960 ft | 127 kts | 261° |
| 2026-04-19 04:06 | 43.04050 | -81.14614 | 903 ft | 126 kts | 259° |
| 2026-04-19 04:06 | 43.03845 | -81.16355 | 1191 ft | 193 kts | 262° |
| 2026-04-19 04:06 | 43.03607 | -81.18633 | 1608 ft | 301 kts | 262° |
| 2026-04-19 04:07 | 43.03275 | -81.21840 | 1761 ft | 374 kts | 262° |
| 2026-04-19 04:07 | 43.02922 | -81.25515 | 1822 ft | 399 kts | 262° |
| 2026-04-19 04:07 | 43.02539 | -81.29321 | 1445 ft | 402 kts | 262° |
| 2026-04-19 04:07 | 43.02267 | -81.32651 | 1483 ft | 344 kts | 268° |
| 2026-04-19 04:08 | 43.02275 | -81.33201 | 3940 ft | 96 kts | 91° |
| 2026-04-19 04:08 | 43.02065 | -81.31301 | 1137 ft | 337 kts | 98° |
| 2026-04-19 04:08 | 43.01651 | -81.27930 | 1541 ft | 380 kts | 103° |
| 2026-04-19 04:08 | 43.00948 | -81.24326 | 1568 ft | 404 kts | 105° |
| 2026-04-19 04:09 | 43.00178 | -81.20586 | 1624 ft | 413 kts | 106° |
| 2026-04-19 04:09 | 42.99376 | -81.16781 | 1633 ft | 418 kts | 106° |
| 2026-04-19 04:09 | 42.98889 | -81.12958 | 1362 ft | 354 kts | 99° |
| 2026-04-19 04:09 | 42.98997 | -81.13356 | 3623 ft | 174 kts | 273° |
| 2026-04-19 04:10 | 42.98910 | -81.16032 | 2027 ft | 353 kts | 279° |
| 2026-04-19 04:10 | 42.99916 | -81.19328 | 1394 ft | 401 kts | 294° |
| 2026-04-19 04:10 | 43.01067 | -81.22852 | 1359 ft | 397 kts | 294° |
| 2026-04-19 04:10 | 43.02099 | -81.26008 | 1502 ft | 374 kts | 294° |
| 2026-04-19 04:11 | 43.02738 | -81.27862 | 5729 ft | 178 kts | 296° |
| 2026-04-19 04:11 | 43.03611 | -81.30003 | 6171 ft | 319 kts | 300° |
| 2026-04-19 04:11 | 43.03812 | -81.30483 | 6148 ft | 336 kts | 300° |
| 2026-04-19 04:12 | 43.04368 | -81.31733 | 6098 ft | 334 kts | 303° |
| 2026-04-19 04:12 | 43.06344 | -81.33659 | 5195 ft | 379 kts | 348° |
| 2026-04-19 04:12 | 43.08074 | -81.33540 | 4970 ft | 383 kts | 18° |